createdAt,value
2022-12-05T00:00:37.768Z,30.42
2022-12-05T00:02:10.925Z,33.53
2022-12-05T00:03:42.846Z,29.73
2022-12-05T00:05:15.798Z,31.27
2022-12-05T00:06:48.542Z,34.42
2022-12-05T00:08:21.343Z,30.27
2022-12-05T00:09:54.160Z,33.10
2022-12-05T00:11:28.928Z,30.63
2022-12-05T00:13:01.638Z,30.00
2022-12-05T00:14:34.459Z,31.42
2022-12-05T00:16:09.696Z,32.17
2022-12-05T00:17:42.525Z,31.60
2022-12-05T00:19:16.900Z,31.20
2022-12-05T00:20:50.152Z,34.50
2022-12-05T00:22:22.846Z,32.47
2022-12-05T00:23:56.183Z,33.63
2022-12-05T00:25:28.968Z,31.83
2022-12-05T00:27:01.695Z,36.13
2022-12-05T00:28:34.323Z,32.55
2022-12-05T00:30:08.331Z,34.35
2022-12-05T00:31:42.658Z,33.60
2022-12-05T00:33:15.434Z,34.10
2022-12-05T00:34:48.343Z,33.22
2022-12-05T00:36:22.929Z,36.88
2022-12-05T00:37:55.701Z,37.45
2022-12-05T00:39:28.488Z,39.00
2022-12-05T00:41:04.055Z,36.85
2022-12-05T00:42:36.771Z,37.13
2022-12-05T00:44:10.360Z,36.25
2022-12-05T00:45:43.120Z,33.88
2022-12-05T00:47:17.570Z,37.53
2022-12-05T00:48:49.988Z,32.75
2022-12-05T00:50:22.688Z,32.75
2022-12-05T00:51:55.499Z,34.85
2022-12-05T00:53:27.252Z,34.10
2022-12-05T00:55:00.005Z,33.83
2022-12-05T00:56:32.599Z,32.20
2022-12-05T00:58:05.504Z,33.65
2022-12-05T00:59:38.245Z,31.27
2022-12-05T01:01:11.838Z,36.17
2022-12-05T01:02:45.984Z,32.45
2022-12-05T01:04:20.487Z,36.30
2022-12-05T01:05:52.230Z,30.83
2022-12-05T01:07:24.951Z,35.70
2022-12-05T01:08:58.790Z,33.40
2022-12-05T01:10:31.538Z,30.83
2022-12-05T01:12:04.395Z,31.98
2022-12-05T01:13:36.609Z,32.97
2022-12-05T01:15:10.871Z,34.05
2022-12-05T01:16:45.189Z,33.72
2022-12-05T01:18:18.494Z,32.25
2022-12-05T01:19:51.210Z,36.58
2022-12-05T01:21:23.509Z,33.95
2022-12-05T01:22:56.213Z,36.63
2022-12-05T01:24:30.388Z,37.05
2022-12-05T01:26:05.996Z,33.47
2022-12-05T01:27:38.824Z,35.80
2022-12-05T01:29:13.105Z,35.92
2022-12-05T01:30:49.125Z,39.22
2022-12-05T01:32:22.007Z,34.50
2022-12-05T01:33:58.330Z,30.67
2022-12-05T01:35:32.729Z,31.85
2022-12-05T01:37:05.584Z,32.75
2022-12-05T01:38:38.600Z,30.83
2022-12-05T01:40:11.763Z,33.88
2022-12-05T01:41:46.374Z,33.83
2022-12-05T01:43:18.863Z,32.88
2022-12-05T01:45:14.195Z,33.20
2022-12-05T01:46:48.803Z,32.20
2022-12-05T01:48:26.570Z,34.22
2022-12-05T01:50:00.864Z,33.22
2022-12-05T01:51:35.368Z,36.08
2022-12-05T01:53:07.167Z,32.92
2022-12-05T01:54:40.349Z,32.20
2022-12-05T01:56:14.224Z,30.65
2022-12-05T01:57:47.830Z,34.50
2022-12-05T01:59:22.891Z,29.95
2022-12-05T02:00:55.619Z,34.78
2022-12-05T02:02:29.583Z,32.40
2022-12-05T02:04:04.584Z,36.40
2022-12-05T02:05:39.367Z,33.75
2022-12-05T02:07:11.173Z,36.35
2022-12-05T02:08:45.509Z,35.65
2022-12-05T02:10:17.693Z,36.40
2022-12-05T02:11:55.035Z,33.25
2022-12-05T02:13:43.988Z,34.83
2022-12-05T02:15:42.816Z,30.05
2022-12-05T02:17:24.639Z,31.27
2022-12-05T02:19:21.438Z,34.55
2022-12-05T02:21:10.384Z,31.80
2022-12-05T02:23:22.452Z,32.83
2022-12-05T02:25:08.850Z,31.83
2022-12-05T02:27:01.443Z,34.42
2022-12-05T02:29:03.873Z,29.77
2022-12-05T02:30:41.294Z,30.60
2022-12-05T02:32:20.727Z,31.73
2022-12-05T02:34:00.976Z,34.88
2022-12-05T02:35:42.467Z,34.47
2022-12-05T02:37:21.745Z,35.20
2022-12-05T02:39:03.438Z,32.45
2022-12-05T02:40:44.121Z,32.45
2022-12-05T02:42:22.651Z,34.83
2022-12-05T02:44:00.202Z,35.92
2022-12-05T02:45:35.963Z,32.13
2022-12-05T02:47:12.770Z,35.78
2022-12-05T02:48:47.755Z,35.20
2022-12-05T02:50:22.806Z,29.73
2022-12-05T02:51:59.919Z,34.45
2022-12-05T02:53:33.819Z,33.38
2022-12-05T02:55:08.324Z,36.38
2022-12-05T02:56:44.673Z,33.78
2022-12-05T02:58:22.183Z,33.85
2022-12-05T02:59:55.051Z,37.15
2022-12-05T03:01:31.654Z,38.08
2022-12-05T03:03:16.299Z,36.28
2022-12-05T03:04:49.012Z,33.97
2022-12-05T03:06:26.111Z,37.08
2022-12-05T03:08:03.756Z,36.88
2022-12-05T03:09:41.265Z,33.35
2022-12-05T03:11:15.435Z,34.70
2022-12-05T03:12:55.696Z,37.63
2022-12-05T03:14:32.136Z,35.97
2022-12-05T03:16:09.841Z,37.05
2022-12-05T03:17:50.083Z,35.50
2022-12-05T03:19:27.325Z,31.90
2022-12-05T03:21:06.200Z,34.75
2022-12-05T03:22:44.063Z,36.78
2022-12-05T03:24:17.409Z,33.90
2022-12-05T03:26:01.841Z,33.20
2022-12-05T03:27:44.615Z,33.58
2022-12-05T03:29:25.942Z,34.50
2022-12-05T03:31:04.065Z,35.90
2022-12-05T03:32:41.411Z,32.40
2022-12-05T03:34:16.887Z,32.45
2022-12-05T03:35:59.384Z,35.30
2022-12-05T03:37:42.566Z,31.83
2022-12-05T03:39:23.047Z,33.42
2022-12-05T03:41:01.974Z,34.58
2022-12-05T03:42:38.361Z,36.40
2022-12-05T03:44:19.797Z,33.35
2022-12-05T03:45:58.898Z,33.45
2022-12-05T03:47:36.106Z,31.35
2022-12-05T03:49:14.223Z,31.00
2022-12-05T03:50:48.710Z,30.95
2022-12-05T03:52:28.464Z,31.27
2022-12-05T03:54:05.594Z,32.53
2022-12-05T03:55:39.680Z,33.40
2022-12-05T03:57:17.289Z,28.95
2022-12-05T03:58:56.372Z,32.78
2022-12-05T04:00:35.066Z,33.03
2022-12-05T04:02:13.519Z,27.00
2022-12-05T04:03:51.676Z,33.28
2022-12-05T04:05:27.726Z,31.52
2022-12-05T04:07:03.765Z,32.15
2022-12-05T04:08:42.742Z,34.28
2022-12-05T04:10:19.169Z,34.10
2022-12-05T04:11:55.792Z,35.75
2022-12-05T04:13:33.433Z,32.83
2022-12-05T04:15:12.146Z,33.35
2022-12-05T04:17:04.337Z,31.60
2022-12-05T04:18:38.956Z,31.40
2022-12-05T04:20:33.146Z,32.40
2022-12-05T04:22:05.908Z,31.60
2022-12-05T04:23:41.453Z,35.25
2022-12-05T04:25:34.858Z,34.33
2022-12-05T04:27:19.930Z,35.95
2022-12-05T04:29:01.800Z,33.17
2022-12-05T04:30:38.806Z,33.53
2022-12-05T04:32:14.419Z,32.58
2022-12-05T04:33:52.584Z,35.60
2022-12-05T04:35:30.036Z,33.60
2022-12-05T04:37:07.610Z,33.25
2022-12-05T04:38:51.635Z,32.85
2022-12-05T04:40:28.900Z,34.78
2022-12-05T04:42:04.959Z,34.30
2022-12-05T04:43:40.423Z,36.47
2022-12-05T04:45:16.735Z,35.80
2022-12-05T04:46:51.426Z,38.15
2022-12-05T04:48:26.696Z,39.72
2022-12-05T04:50:00.689Z,36.58
2022-12-05T04:51:36.103Z,42.30
2022-12-05T04:53:11.582Z,41.17
2022-12-05T04:54:50.396Z,43.72
2022-12-05T04:56:26.270Z,43.85
2022-12-05T04:58:07.217Z,43.85
2022-12-05T04:59:39.035Z,61.13
2022-12-05T05:01:16.197Z,50.30
2022-12-05T05:02:55.741Z,46.92
2022-12-05T05:04:33.135Z,49.13
2022-12-05T05:06:06.604Z,48.67
2022-12-05T05:07:44.062Z,54.42
2022-12-05T05:09:16.824Z,48.80
2022-12-05T05:11:00.469Z,50.45
2022-12-05T05:12:33.206Z,55.45
2022-12-05T05:14:06.309Z,48.55
2022-12-05T05:15:39.092Z,51.55
2022-12-05T05:17:11.868Z,50.83
2022-12-05T05:18:44.842Z,51.63
2022-12-05T05:20:27.198Z,50.47
2022-12-05T05:22:00.318Z,51.40
2022-12-05T05:23:33.030Z,52.65
2022-12-05T05:25:06.117Z,47.58
2022-12-05T05:26:42.565Z,54.63
2022-12-05T05:28:15.258Z,51.65
2022-12-05T05:29:47.039Z,48.70
2022-12-05T05:31:21.139Z,47.53
2022-12-05T05:32:54.355Z,55.00
2022-12-05T05:34:28.619Z,49.08
2022-12-05T05:36:04.312Z,53.63
2022-12-05T05:37:37.040Z,47.90
2022-12-05T05:39:14.829Z,44.78
2022-12-05T05:40:47.559Z,52.30
2022-12-05T05:42:20.667Z,45.25
2022-12-05T05:43:54.054Z,52.38
2022-12-05T05:45:26.750Z,50.40
2022-12-05T05:46:59.538Z,46.67
2022-12-05T05:48:32.383Z,44.58
2022-12-05T05:50:04.986Z,46.63
2022-12-05T05:51:37.739Z,46.50
2022-12-05T05:53:10.507Z,45.33
2022-12-05T05:54:43.331Z,47.38
2022-12-05T05:56:21.446Z,48.38
2022-12-05T05:57:56.318Z,47.08
2022-12-05T05:59:29.064Z,47.70
2022-12-05T06:01:05.104Z,50.00
2022-12-05T06:02:38.245Z,46.35
2022-12-05T06:04:11.151Z,47.00
2022-12-05T06:05:46.422Z,51.25
2022-12-05T06:07:22.821Z,50.17
2022-12-05T06:08:55.639Z,48.33
2022-12-05T06:10:29.729Z,50.65
2022-12-05T06:12:02.501Z,48.40
2022-12-05T06:13:36.703Z,46.00
2022-12-05T06:15:10.434Z,48.47
2022-12-05T06:16:43.287Z,47.38
2022-12-05T06:18:16.127Z,42.92
2022-12-05T06:19:48.915Z,42.13
2022-12-05T06:21:22.533Z,48.97
2022-12-05T06:22:55.236Z,48.72
2022-12-05T06:24:28.045Z,44.35
2022-12-05T06:26:00.785Z,47.72
2022-12-05T06:27:33.869Z,53.75
2022-12-05T06:29:07.966Z,53.90
2022-12-05T06:30:40.705Z,46.53
2022-12-05T06:32:13.428Z,46.28
2022-12-05T06:33:46.822Z,45.83
2022-12-05T06:35:19.565Z,44.10
2022-12-05T06:36:52.270Z,51.47
2022-12-05T06:38:24.974Z,48.53
2022-12-05T06:39:57.861Z,44.28
2022-12-05T06:41:31.074Z,50.85
2022-12-05T06:43:03.794Z,51.58
2022-12-05T06:44:38.041Z,47.83
2022-12-05T06:46:13.900Z,51.20
2022-12-05T06:47:46.712Z,53.88
2022-12-05T06:49:19.462Z,49.13
2022-12-05T06:50:53.363Z,49.55
2022-12-05T06:52:26.080Z,47.50
2022-12-05T06:53:58.828Z,53.38
2022-12-05T06:55:31.562Z,50.22
2022-12-05T06:57:04.360Z,51.22
2022-12-05T06:58:37.072Z,45.88
2022-12-05T07:00:30.071Z,41.45
2022-12-05T07:02:02.950Z,43.47
2022-12-05T07:03:34.731Z,44.20
2022-12-05T07:05:07.829Z,45.60
2022-12-05T07:06:45.011Z,43.67
2022-12-05T07:08:20.275Z,45.92
2022-12-05T07:09:53.766Z,40.35
2022-12-05T07:11:26.842Z,42.70
2022-12-05T07:12:59.586Z,42.78
2022-12-05T07:14:47.139Z,36.10
2022-12-05T07:16:22.031Z,39.58
2022-12-05T07:17:54.820Z,37.33
2022-12-05T07:19:27.586Z,36.15
2022-12-05T07:21:17.075Z,37.22
2022-12-05T07:22:49.812Z,39.10
2022-12-05T07:24:22.559Z,38.60
2022-12-05T07:25:55.563Z,42.92
2022-12-05T07:27:28.577Z,39.78
2022-12-05T07:29:01.339Z,43.42
2022-12-05T07:30:34.068Z,35.78
2022-12-05T07:32:09.121Z,39.47
2022-12-05T07:33:42.199Z,41.13
2022-12-05T07:35:15.093Z,36.03
2022-12-05T07:36:47.867Z,38.03
2022-12-05T07:38:19.614Z,38.17
2022-12-05T07:39:53.372Z,43.17
2022-12-05T07:41:28.444Z,38.90
2022-12-05T07:43:01.165Z,38.05
2022-12-05T07:44:34.827Z,40.13
2022-12-05T07:46:08.871Z,37.80
2022-12-05T07:47:43.096Z,38.97
2022-12-05T07:49:16.104Z,39.22
2022-12-05T07:50:48.894Z,42.95
2022-12-05T07:52:21.670Z,40.28
2022-12-05T07:53:54.427Z,42.13
2022-12-05T07:55:27.185Z,42.17
2022-12-05T07:56:59.937Z,44.22
2022-12-05T07:58:33.927Z,46.50
2022-12-05T08:00:07.983Z,42.35
2022-12-05T08:01:40.755Z,41.15
2022-12-05T08:03:14.829Z,49.42
2022-12-05T08:04:47.599Z,44.53
2022-12-05T08:06:22.179Z,50.03
2022-12-05T08:07:54.926Z,45.03
2022-12-05T08:09:27.949Z,48.50
2022-12-05T08:11:05.035Z,50.45
2022-12-05T08:12:38.143Z,42.83
2022-12-05T08:14:14.572Z,41.55
2022-12-05T08:15:47.307Z,39.15
2022-12-05T08:17:20.202Z,46.50
2022-12-05T08:18:56.746Z,42.80
2022-12-05T08:20:30.431Z,43.13
2022-12-05T08:22:03.201Z,43.42
2022-12-05T08:23:36.297Z,44.97
2022-12-05T08:25:09.826Z,44.13
2022-12-05T08:26:42.875Z,45.42
2022-12-05T08:28:15.958Z,46.03
2022-12-05T08:29:48.894Z,45.60
2022-12-05T08:31:24.208Z,44.67
2022-12-05T08:32:57.124Z,47.08
2022-12-05T08:34:31.319Z,48.33
2022-12-05T08:36:05.234Z,47.03
2022-12-05T08:37:37.992Z,47.13
2022-12-05T08:39:14.845Z,46.67
2022-12-05T08:40:47.938Z,43.33
2022-12-05T08:42:20.668Z,45.22
2022-12-05T08:43:53.867Z,45.10
2022-12-05T08:45:26.650Z,43.72
2022-12-05T08:46:59.369Z,42.22
2022-12-05T08:48:33.351Z,48.83
2022-12-05T08:50:09.121Z,44.97
2022-12-05T08:51:42.531Z,47.22
2022-12-05T08:53:16.051Z,48.45
2022-12-05T08:54:48.785Z,45.95
2022-12-05T08:56:26.613Z,45.35
2022-12-05T08:58:00.035Z,44.50
2022-12-05T08:59:32.786Z,44.30
2022-12-05T09:01:06.733Z,41.13
2022-12-05T09:02:39.578Z,41.92
2022-12-05T09:04:13.057Z,46.13
2022-12-05T09:05:47.129Z,41.30
2022-12-05T09:07:19.851Z,39.60
2022-12-05T09:08:54.850Z,41.42
2022-12-05T09:10:27.948Z,43.10
2022-12-05T09:12:00.938Z,42.30
2022-12-05T09:13:33.648Z,41.15
2022-12-05T09:15:09.346Z,39.42
2022-12-05T09:16:44.279Z,40.35
2022-12-05T09:18:16.991Z,41.45
2022-12-05T09:19:52.388Z,39.13
2022-12-05T09:21:28.006Z,44.88
2022-12-05T09:23:00.732Z,39.47
2022-12-05T09:24:33.503Z,38.40
2022-12-05T09:26:07.781Z,38.30
2022-12-05T09:27:40.518Z,38.45
2022-12-05T09:29:18.101Z,38.70
2022-12-05T09:30:57.895Z,41.30
2022-12-05T09:32:30.774Z,38.75
2022-12-05T09:34:03.971Z,33.20
2022-12-05T09:35:40.489Z,42.72
2022-12-05T09:37:37.649Z,37.42
2022-12-05T09:39:08.347Z,40.65
2022-12-05T09:40:43.684Z,43.00
2022-12-05T09:42:44.739Z,43.30
2022-12-05T09:44:26.055Z,42.85
2022-12-05T09:46:05.602Z,42.50
2022-12-05T09:47:56.188Z,42.70
2022-12-05T09:49:30.859Z,43.28
2022-12-05T09:51:04.608Z,45.20
2022-12-05T09:52:42.121Z,43.72
2022-12-05T09:54:16.360Z,41.55
2022-12-05T09:55:53.410Z,42.78
2022-12-05T09:57:34.747Z,42.72
2022-12-05T09:59:15.686Z,44.97
2022-12-05T10:00:50.541Z,38.90
2022-12-05T10:02:30.125Z,38.92
2022-12-05T10:04:25.780Z,39.63
2022-12-05T10:06:11.214Z,40.30
2022-12-05T10:07:53.823Z,37.15
2022-12-05T10:09:48.575Z,37.58
2022-12-05T10:11:30.304Z,35.42
2022-12-05T10:13:14.847Z,36.17
2022-12-05T10:14:57.869Z,32.83
2022-12-05T10:16:34.130Z,34.40
2022-12-05T10:18:15.016Z,35.38
2022-12-05T10:19:50.944Z,37.45
2022-12-05T10:21:29.188Z,39.80
2022-12-05T10:23:06.754Z,35.35
2022-12-05T10:24:43.666Z,36.83
2022-12-05T10:26:18.289Z,32.88
2022-12-05T10:27:53.323Z,34.65
2022-12-05T10:29:32.123Z,28.60
2022-12-05T10:31:14.415Z,33.00
2022-12-05T10:32:54.619Z,34.53
2022-12-05T10:34:32.768Z,30.15
2022-12-05T10:36:12.058Z,29.33
2022-12-05T10:37:48.758Z,29.95
2022-12-05T10:39:22.926Z,30.08
2022-12-05T10:40:59.252Z,31.63
2022-12-05T10:42:36.397Z,31.70
2022-12-05T10:44:09.719Z,31.80
2022-12-05T10:45:44.834Z,32.08
2022-12-05T10:47:17.706Z,28.98
2022-12-05T10:48:50.503Z,27.52
2022-12-05T10:50:26.132Z,28.08
2022-12-05T10:52:00.588Z,28.23
2022-12-05T10:53:40.283Z,23.55
2022-12-05T10:55:18.978Z,26.38
2022-12-05T10:56:53.669Z,25.73
2022-12-05T10:58:28.564Z,23.60
2022-12-05T11:00:12.828Z,21.23
2022-12-05T11:01:49.341Z,20.42
2022-12-05T11:03:31.075Z,22.20
2022-12-05T11:05:04.779Z,23.27
2022-12-05T11:06:37.619Z,24.63
2022-12-05T11:08:41.479Z,24.92
2022-12-05T11:10:26.703Z,23.92
2022-12-05T11:12:18.907Z,23.88
2022-12-05T11:13:56.971Z,18.52
2022-12-05T11:15:31.453Z,22.10
2022-12-05T11:17:06.642Z,19.65
2022-12-05T11:18:41.724Z,22.00
2022-12-05T11:20:36.921Z,24.67
2022-12-05T11:22:18.478Z,24.17
2022-12-05T11:23:51.319Z,22.25
2022-12-05T11:25:30.113Z,20.08
2022-12-05T11:27:22.441Z,18.55
2022-12-05T11:28:55.186Z,23.00
2022-12-05T11:30:29.800Z,23.85
2022-12-05T11:32:03.207Z,22.40
2022-12-05T11:33:37.392Z,26.10
2022-12-05T11:35:19.219Z,26.40
2022-12-05T11:36:57.020Z,27.58
2022-12-05T11:38:32.594Z,29.20
2022-12-05T11:40:15.418Z,27.88
2022-12-05T11:42:02.525Z,28.23
2022-12-05T11:43:58.381Z,26.63
2022-12-05T11:45:46.208Z,25.95
2022-12-05T11:47:32.606Z,26.00
2022-12-05T11:49:18.703Z,28.02
2022-12-05T11:51:05.513Z,29.33
2022-12-05T11:52:52.771Z,25.75
2022-12-05T11:55:05.337Z,26.77
2022-12-05T11:56:42.411Z,27.38
2022-12-05T11:58:42.608Z,29.52
2022-12-05T12:00:25.748Z,31.60
2022-12-05T12:02:09.199Z,26.80
2022-12-05T12:03:59.280Z,26.75
2022-12-05T12:05:36.615Z,29.58
2022-12-05T12:07:38.247Z,26.15
2022-12-05T12:09:25.562Z,26.20
2022-12-05T12:11:10.717Z,30.10
2022-12-05T12:12:52.604Z,28.45
2022-12-05T12:14:37.551Z,30.20
2022-12-05T12:16:18.300Z,26.05
2022-12-05T12:17:57.559Z,26.75
2022-12-05T12:19:52.542Z,31.38
2022-12-05T12:21:39.659Z,27.60
2022-12-05T12:23:44.467Z,31.05
2022-12-05T12:25:26.154Z,27.40
2022-12-05T12:27:06.800Z,26.95
2022-12-05T12:28:47.613Z,29.25
2022-12-05T12:30:25.256Z,29.50
2022-12-05T12:32:12.367Z,32.53
2022-12-05T12:33:50.825Z,27.05
2022-12-05T12:35:33.825Z,29.92
2022-12-05T12:37:18.690Z,28.33
2022-12-05T12:39:19.865Z,28.40
2022-12-05T12:40:55.625Z,27.02
2022-12-05T12:42:33.532Z,26.05
2022-12-05T12:44:17.702Z,30.00
2022-12-05T12:46:09.619Z,27.35
2022-12-05T12:48:07.750Z,24.25
2022-12-05T12:49:56.415Z,24.83
2022-12-05T12:51:33.383Z,28.05
2022-12-05T12:53:27.715Z,26.48
2022-12-05T12:55:14.573Z,23.40
2022-12-05T12:56:56.313Z,25.50
2022-12-05T12:58:41.431Z,26.15
2022-12-05T13:00:22.855Z,28.10
2022-12-05T13:02:01.998Z,26.90
2022-12-05T13:03:40.580Z,23.80
2022-12-05T13:05:24.361Z,24.33
2022-12-05T13:07:02.371Z,27.35
2022-12-05T13:08:41.192Z,27.10
2022-12-05T13:10:22.324Z,24.63
2022-12-05T13:11:56.886Z,28.65
2022-12-05T13:13:36.394Z,29.23
2022-12-05T13:15:16.143Z,31.10
2022-12-05T13:16:53.043Z,28.80
2022-12-05T13:18:27.689Z,29.83
2022-12-05T13:20:00.965Z,28.60
2022-12-05T13:21:34.435Z,29.90
2022-12-05T13:23:13.618Z,27.55
2022-12-05T13:24:46.645Z,29.27
2022-12-05T13:26:19.761Z,30.40
2022-12-05T13:27:58.195Z,31.10
2022-12-05T13:29:34.794Z,25.48
2022-12-05T13:31:07.723Z,30.08
2022-12-05T13:32:42.728Z,31.20
2022-12-05T13:34:50.179Z,31.73
2022-12-05T13:36:41.379Z,30.33
2022-12-05T13:38:38.997Z,32.00
2022-12-05T13:40:55.720Z,30.63
2022-12-05T13:42:33.104Z,30.23
2022-12-05T13:44:12.330Z,29.73
2022-12-05T13:46:06.722Z,29.33
2022-12-05T13:47:49.384Z,29.42
2022-12-05T13:49:31.039Z,28.20
2022-12-05T13:51:09.458Z,28.90
2022-12-05T13:52:46.618Z,35.63
2022-12-05T13:54:23.451Z,31.75
2022-12-05T13:55:59.449Z,34.15
2022-12-05T13:57:50.443Z,29.13
2022-12-05T14:00:01.697Z,36.92
2022-12-05T14:01:56.049Z,28.83
2022-12-05T14:03:57.088Z,29.42
2022-12-05T14:05:48.164Z,29.50
2022-12-05T14:07:47.075Z,33.85
2022-12-05T14:09:29.966Z,35.90
2022-12-05T14:11:11.970Z,34.15
2022-12-05T14:12:49.350Z,37.05
2022-12-05T14:15:01.805Z,33.85
2022-12-05T14:16:45.432Z,39.58
2022-12-05T14:18:31.991Z,36.97
2022-12-05T14:20:23.421Z,42.47
2022-12-05T14:22:04.703Z,43.67
2022-12-05T14:23:59.717Z,41.15
2022-12-05T14:25:59.565Z,35.85
2022-12-05T14:27:47.830Z,35.67
2022-12-05T14:29:39.812Z,41.25
2022-12-05T14:31:34.188Z,35.50
2022-12-05T14:33:16.426Z,39.35
2022-12-05T14:34:57.921Z,35.88
2022-12-05T14:36:31.655Z,36.30
2022-12-05T14:38:06.704Z,36.17
2022-12-05T14:39:44.341Z,39.03
2022-12-05T14:41:34.097Z,35.65
2022-12-05T14:43:09.436Z,38.38
2022-12-05T14:44:47.711Z,30.75
2022-12-05T14:46:25.778Z,36.67
2022-12-05T14:48:00.094Z,33.85
2022-12-05T14:49:53.624Z,33.35
2022-12-05T14:51:56.680Z,33.67
2022-12-05T14:53:48.651Z,35.75
2022-12-05T14:55:26.825Z,36.25
2022-12-05T14:57:11.008Z,31.70
2022-12-05T14:58:48.582Z,36.17
2022-12-05T15:00:24.014Z,36.40
2022-12-05T15:01:59.218Z,35.05
2022-12-05T15:03:35.851Z,32.67
2022-12-05T15:05:22.994Z,33.38
2022-12-05T15:07:00.311Z,35.33
2022-12-05T15:08:42.012Z,38.45
2022-12-05T15:10:21.044Z,34.95
2022-12-05T15:11:56.934Z,37.92
2022-12-05T15:13:31.586Z,31.48
2022-12-05T15:15:13.916Z,33.83
2022-12-05T15:16:50.046Z,37.50
2022-12-05T15:18:28.263Z,32.50
2022-12-05T15:20:05.012Z,36.38
2022-12-05T15:21:43.167Z,36.55
2022-12-05T15:23:44.422Z,38.72
2022-12-05T15:25:26.364Z,28.63
2022-12-05T15:27:04.280Z,32.97
2022-12-05T15:28:37.016Z,30.38
2022-12-05T15:30:17.100Z,34.05
2022-12-05T15:31:51.910Z,31.42
2022-12-05T15:33:26.458Z,33.83
2022-12-05T15:35:04.854Z,35.53
2022-12-05T15:36:43.673Z,33.38
2022-12-05T15:38:27.086Z,29.00
2022-12-05T15:40:02.575Z,28.67
2022-12-05T15:41:35.298Z,25.98
2022-12-05T15:43:29.540Z,24.90
2022-12-05T15:45:20.327Z,22.73
2022-12-05T15:46:54.044Z,24.85
2022-12-05T15:48:26.767Z,27.40
2022-12-05T15:49:59.692Z,31.00
2022-12-05T15:51:37.733Z,22.63
2022-12-05T15:53:17.304Z,29.67
2022-12-05T15:54:50.514Z,20.00
2022-12-05T15:56:26.492Z,20.23
2022-12-05T15:58:12.587Z,23.73
2022-12-05T15:59:53.968Z,17.98
2022-12-05T16:01:28.725Z,20.55
2022-12-05T16:03:06.624Z,21.08
2022-12-05T16:04:44.435Z,20.20
2022-12-05T16:06:20.746Z,18.13
2022-12-05T16:07:54.728Z,16.30
2022-12-05T16:09:32.230Z,17.02
2022-12-05T16:11:09.320Z,14.77
2022-12-05T16:12:43.040Z,15.68
2022-12-05T16:14:36.979Z,14.77
2022-12-05T16:16:16.729Z,19.10
2022-12-05T16:17:54.368Z,17.60
2022-12-05T16:19:28.290Z,15.45
2022-12-05T16:21:01.051Z,17.92
2022-12-05T16:22:34.362Z,16.20
2022-12-05T16:24:09.394Z,14.32
2022-12-05T16:25:42.723Z,12.25
2022-12-05T16:27:17.904Z,11.60
2022-12-05T16:29:01.350Z,13.63
2022-12-05T16:30:34.791Z,13.55
2022-12-05T16:32:19.295Z,13.48
2022-12-05T16:34:01.667Z,12.73
2022-12-05T16:35:39.749Z,11.88
2022-12-05T16:37:19.687Z,12.52
2022-12-05T16:39:00.601Z,11.18
2022-12-05T16:40:33.874Z,12.23
2022-12-05T16:42:24.403Z,12.27
2022-12-05T16:43:57.273Z,11.63
2022-12-05T16:45:41.147Z,12.27
2022-12-05T16:47:24.558Z,12.70
2022-12-05T16:49:17.913Z,11.13
2022-12-05T16:50:52.673Z,12.85
2022-12-05T16:52:31.592Z,12.40
2022-12-05T16:54:04.436Z,13.25
2022-12-05T16:55:38.323Z,14.43
2022-12-05T16:57:14.259Z,14.23
2022-12-05T16:58:47.624Z,14.70
2022-12-05T17:00:21.188Z,13.18
2022-12-05T17:01:53.935Z,12.77
2022-12-05T17:03:36.229Z,13.98
2022-12-05T17:05:14.579Z,11.85
2022-12-05T17:06:47.290Z,14.10
2022-12-05T17:08:20.123Z,12.60
2022-12-05T17:09:52.909Z,12.70
2022-12-05T17:11:27.983Z,13.27
2022-12-05T17:13:02.753Z,12.93
2022-12-05T17:14:35.507Z,12.30
2022-12-05T17:16:08.600Z,11.15
2022-12-05T17:17:41.349Z,11.00
2022-12-05T17:19:15.638Z,12.10
2022-12-05T17:20:51.058Z,11.85
2022-12-05T17:22:25.971Z,10.43
2022-12-05T17:23:58.660Z,10.07
2022-12-05T17:25:36.193Z,11.95
2022-12-05T17:27:11.758Z,12.77
2022-12-05T17:28:44.736Z,10.80
2022-12-05T17:30:17.716Z,11.63
2022-12-05T17:31:50.517Z,11.13
2022-12-05T17:33:23.300Z,10.70
2022-12-05T17:34:59.238Z,10.57
2022-12-05T17:36:35.087Z,10.60
2022-12-05T17:38:08.617Z,10.02
2022-12-05T17:39:41.319Z,9.63
2022-12-05T17:41:17.231Z,8.38
2022-12-05T17:42:49.967Z,9.68
2022-12-05T17:44:22.770Z,10.10
2022-12-05T17:45:55.578Z,9.20
2022-12-05T17:47:28.336Z,10.13
2022-12-05T17:49:01.154Z,8.00
2022-12-05T17:50:35.261Z,8.48
2022-12-05T17:52:24.579Z,10.73
2022-12-05T17:53:57.387Z,9.57
2022-12-05T17:55:30.824Z,9.43
2022-12-05T17:57:03.578Z,8.95
2022-12-05T17:58:36.314Z,8.75
2022-12-05T18:00:10.419Z,8.68
2022-12-05T18:01:43.135Z,9.25
2022-12-05T18:03:18.230Z,9.77
2022-12-05T18:04:51.128Z,8.77
2022-12-05T18:06:26.464Z,9.82
2022-12-05T18:07:59.239Z,9.80
2022-12-05T18:09:32.013Z,9.27
2022-12-05T18:11:04.747Z,10.15
2022-12-05T18:12:37.616Z,10.85
2022-12-05T18:14:10.694Z,9.55
2022-12-05T18:15:43.674Z,10.25
2022-12-05T18:17:16.582Z,10.43
2022-12-05T18:18:49.284Z,9.40
2022-12-05T18:20:22.190Z,9.32
2022-12-05T18:21:56.265Z,9.77
2022-12-05T18:23:28.985Z,11.63
2022-12-05T18:25:03.351Z,10.82
2022-12-05T18:26:36.067Z,8.23
2022-12-05T18:28:08.824Z,10.32
2022-12-05T18:29:41.582Z,8.25
2022-12-05T18:31:16.571Z,10.27
2022-12-05T18:32:49.629Z,9.80
2022-12-05T18:34:22.355Z,9.35
2022-12-05T18:35:55.092Z,8.45
2022-12-05T18:37:29.359Z,9.23
2022-12-05T18:39:02.109Z,10.57
2022-12-05T18:40:34.824Z,10.52
2022-12-05T18:42:13.325Z,11.70
2022-12-05T18:43:48.150Z,8.68
2022-12-05T18:45:21.405Z,9.18
2022-12-05T18:46:54.104Z,10.75
2022-12-05T18:48:47.188Z,11.30
2022-12-05T18:50:20.172Z,9.55
2022-12-05T18:51:53.519Z,9.55
2022-12-05T18:53:27.567Z,9.55
2022-12-05T18:55:16.150Z,10.05
2022-12-05T18:56:50.704Z,10.35
2022-12-05T18:58:24.265Z,11.00
2022-12-05T18:59:57.006Z,9.73
2022-12-05T19:01:30.902Z,11.02
2022-12-05T19:03:09.126Z,10.75
2022-12-05T19:04:42.143Z,11.13
2022-12-05T19:06:16.425Z,9.40
2022-12-05T19:07:49.165Z,10.35
2022-12-05T19:09:26.039Z,9.02
2022-12-05T19:11:04.904Z,11.25
2022-12-05T19:12:37.743Z,10.55
2022-12-05T19:14:11.343Z,10.93
2022-12-05T19:15:44.087Z,10.25
2022-12-05T19:17:16.812Z,9.85
2022-12-05T19:18:54.843Z,11.00
2022-12-05T19:20:27.599Z,9.38
2022-12-05T19:22:00.820Z,10.10
2022-12-05T19:23:34.430Z,14.93
2022-12-05T19:25:09.567Z,15.18
2022-12-05T19:26:42.332Z,12.38
2022-12-05T19:28:15.206Z,12.52
2022-12-05T19:29:47.933Z,13.15
2022-12-05T19:31:22.557Z,12.43
2022-12-05T19:32:55.311Z,10.82
2022-12-05T19:34:28.010Z,20.05
2022-12-05T19:36:06.506Z,15.73
2022-12-05T19:37:39.283Z,12.38
2022-12-05T19:39:16.110Z,12.15
2022-12-05T19:40:57.446Z,12.15
2022-12-05T19:42:31.020Z,11.40
2022-12-05T19:44:04.525Z,11.45
2022-12-05T19:45:39.303Z,9.65
2022-12-05T19:47:12.059Z,11.85
2022-12-05T19:48:45.211Z,12.75
2022-12-05T19:50:18.171Z,13.43
2022-12-05T19:51:51.060Z,18.60
2022-12-05T19:53:24.265Z,16.35
2022-12-05T19:54:57.004Z,12.50
2022-12-05T19:56:32.892Z,10.30
2022-12-05T19:58:05.622Z,9.35
2022-12-05T19:59:38.462Z,11.43
2022-12-05T20:01:13.259Z,9.38
2022-12-05T20:02:46.269Z,8.98
2022-12-05T20:04:19.681Z,9.70
2022-12-05T20:06:01.948Z,9.52
2022-12-05T20:07:34.705Z,9.98
2022-12-05T20:09:08.681Z,10.02
2022-12-05T20:10:41.384Z,8.77
2022-12-05T20:12:15.470Z,8.48
2022-12-05T20:13:48.557Z,10.75
2022-12-05T20:15:21.470Z,10.20
2022-12-05T20:16:54.532Z,8.70
2022-12-05T20:18:27.367Z,9.93
2022-12-05T20:20:00.272Z,9.45
2022-12-05T20:21:34.947Z,9.18
2022-12-05T20:23:07.948Z,8.88
2022-12-05T20:24:40.690Z,9.57
2022-12-05T20:26:16.297Z,8.60
2022-12-05T20:27:51.851Z,8.57
2022-12-05T20:29:24.571Z,9.65
2022-12-05T20:31:05.106Z,7.53
2022-12-05T20:32:37.862Z,8.20
2022-12-05T20:34:13.289Z,8.88
2022-12-05T20:35:46.028Z,8.20
2022-12-05T20:37:18.755Z,7.72
2022-12-05T20:38:56.444Z,8.30
2022-12-05T20:40:29.404Z,9.50
2022-12-05T20:42:02.152Z,9.15
2022-12-05T20:43:36.279Z,9.38
2022-12-05T20:45:09.870Z,8.10
2022-12-05T20:46:42.839Z,10.02
2022-12-05T20:48:15.543Z,7.90
2022-12-05T20:49:48.331Z,8.38
2022-12-05T20:51:23.234Z,8.45
2022-12-05T20:52:55.969Z,9.95
2022-12-05T20:54:28.712Z,9.40
2022-12-05T20:56:04.800Z,9.05
2022-12-05T20:57:37.507Z,11.80
2022-12-05T20:59:14.080Z,9.30